createdAt,value
2023-02-03T00:04:56.774Z,0.85
2023-02-03T00:10:04.888Z,0.81
2023-02-03T00:15:12.338Z,0.79
2023-02-03T00:20:18.915Z,0.73
2023-02-03T00:25:27.209Z,0.69
2023-02-03T00:30:35.630Z,0.61
2023-02-03T00:35:42.147Z,0.60
2023-02-03T00:40:56.418Z,0.61
2023-02-03T00:46:02.836Z,0.56
2023-02-03T00:51:09.144Z,0.56
2023-02-03T00:56:16.959Z,0.61
2023-02-03T01:01:23.849Z,0.57
2023-02-03T01:06:30.393Z,0.60
2023-02-03T01:11:38.266Z,0.55
2023-02-03T01:16:44.534Z,0.48
2023-02-03T01:21:50.695Z,0.38
2023-02-03T01:26:58.286Z,0.28
2023-02-03T01:32:04.875Z,0.26
2023-02-03T01:37:10.983Z,0.18
2023-02-03T01:42:18.855Z,0.12
2023-02-03T01:47:32.437Z,0.12
2023-02-03T01:52:40.703Z,0.03
2023-02-03T01:57:53.720Z,-0.01
2023-02-03T02:03:02.813Z,-0.05
2023-02-03T02:08:12.747Z,-0.09
2023-02-03T02:13:22.551Z,-0.19
2023-02-03T02:18:49.951Z,-0.24
2023-02-03T02:24:43.046Z,-0.30
2023-02-03T02:30:38.793Z,-0.37
2023-02-03T02:35:59.218Z,-0.41
2023-02-03T02:41:12.603Z,-0.42
2023-02-03T02:46:34.456Z,-0.42
2023-02-03T02:51:44.180Z,-0.49
2023-02-03T02:56:57.964Z,-0.50
2023-02-03T03:02:04.265Z,-0.52
2023-02-03T03:07:15.827Z,-0.54
2023-02-03T03:12:26.512Z,-0.61
2023-02-03T03:17:36.461Z,-0.63
2023-02-03T03:22:49.335Z,-0.66
2023-02-03T03:28:04.629Z,-0.69
2023-02-03T03:33:12.343Z,-0.75
2023-02-03T03:38:32.219Z,-0.81
2023-02-03T03:43:44.269Z,-0.90
2023-02-03T03:48:57.127Z,-0.92
2023-02-03T03:54:09.148Z,-0.91
2023-02-03T03:59:19.159Z,-1.04
2023-02-03T04:04:27.815Z,-1.12
2023-02-03T04:09:37.440Z,-1.13
2023-02-03T04:14:43.853Z,-1.16
2023-02-03T04:19:50.788Z,-1.22
2023-02-03T04:25:00.833Z,-1.19
2023-02-03T04:30:10.693Z,-1.16
2023-02-03T04:35:17.606Z,-1.12
2023-02-03T04:40:25.525Z,-1.15
2023-02-03T04:45:31.975Z,-1.18
2023-02-03T04:50:38.403Z,-1.16
2023-02-03T04:55:49.333Z,-1.28
2023-02-03T05:00:57.739Z,-1.34
2023-02-03T05:06:05.779Z,-1.39
2023-02-03T05:11:13.545Z,-1.50
2023-02-03T05:16:19.917Z,-1.60
2023-02-03T05:21:26.251Z,-1.55
2023-02-03T05:26:33.866Z,-1.49
2023-02-03T05:31:40.107Z,-1.65
2023-02-03T05:36:47.302Z,-1.68
2023-02-03T05:41:58.271Z,-1.78
2023-02-03T05:47:04.921Z,-1.81
2023-02-03T05:52:11.354Z,-1.85
2023-02-03T05:57:19.670Z,-1.87
2023-02-03T06:02:25.929Z,-1.93
2023-02-03T06:07:32.252Z,-1.93
2023-02-03T06:12:41.644Z,-1.93
2023-02-03T06:17:48.958Z,-1.94
2023-02-03T06:22:55.152Z,-1.90
2023-02-03T06:28:04.916Z,-1.93
2023-02-03T06:33:11.427Z,-1.87
2023-02-03T06:38:17.890Z,-1.84
2023-02-03T06:43:26.760Z,-1.80
2023-02-03T06:48:32.843Z,-1.80
2023-02-03T06:53:39.283Z,-1.78
2023-02-03T06:58:47.965Z,-1.75
2023-02-03T07:03:55.107Z,-1.72
2023-02-03T07:09:03.984Z,-1.64
2023-02-03T07:14:11.388Z,-1.57
2023-02-03T07:19:17.562Z,-1.48
2023-02-03T07:24:28.680Z,-1.39
2023-02-03T07:29:36.628Z,-1.37
2023-02-03T07:34:42.983Z,-1.33
2023-02-03T07:39:49.272Z,-1.25
2023-02-03T07:44:58.276Z,-1.17
2023-02-03T07:50:07.463Z,-1.08
2023-02-03T07:55:14.385Z,-0.99
2023-02-03T08:00:23.874Z,-0.92
2023-02-03T08:05:30.569Z,-0.84
2023-02-03T08:10:36.996Z,-0.80
2023-02-03T08:15:45.093Z,-0.74
2023-02-03T08:20:56.039Z,-0.70
2023-02-03T08:26:02.611Z,-0.65
2023-02-03T08:31:14.379Z,-0.60
2023-02-03T08:36:20.897Z,-0.54
2023-02-03T08:41:27.193Z,-0.48
2023-02-03T08:46:36.121Z,-0.42
2023-02-03T08:51:42.195Z,-0.35
2023-02-03T08:56:48.694Z,-0.27
2023-02-03T09:01:56.848Z,-0.18
2023-02-03T09:07:04.819Z,-0.05
2023-02-03T09:12:13.363Z,0.07
2023-02-03T09:17:21.209Z,0.04
2023-02-03T09:22:27.858Z,0.08
2023-02-03T09:27:34.961Z,0.10
2023-02-03T09:32:43.030Z,0.10
2023-02-03T09:37:49.520Z,0.16
2023-02-03T09:43:13.103Z,0.17
2023-02-03T09:48:26.640Z,0.21
2023-02-03T09:53:40.315Z,0.24
2023-02-03T09:58:47.879Z,0.30
2023-02-03T10:04:03.729Z,0.38
2023-02-03T10:09:28.134Z,0.41
2023-02-03T10:14:52.052Z,0.43
2023-02-03T10:20:08.652Z,0.44
2023-02-03T10:25:25.264Z,0.49
2023-02-03T10:30:45.884Z,0.55
2023-02-03T10:35:58.061Z,0.57
2023-02-03T10:41:05.020Z,0.57
2023-02-03T10:46:11.388Z,0.62
2023-02-03T10:51:27.924Z,0.62
2023-02-03T10:56:38.764Z,0.62
2023-02-03T11:01:49.323Z,0.61
2023-02-03T11:07:02.757Z,0.66
2023-02-03T11:12:15.054Z,0.65
2023-02-03T11:17:26.604Z,0.70
2023-02-03T11:22:38.756Z,0.74
2023-02-03T11:27:45.625Z,0.78
2023-02-03T11:32:53.105Z,0.82
2023-02-03T11:38:04.070Z,0.87
2023-02-03T11:43:19.671Z,0.88
2023-02-03T11:48:33.409Z,0.84
2023-02-03T11:54:01.442Z,0.86
2023-02-03T11:59:45.891Z,0.85
2023-02-03T12:05:19.528Z,0.84
2023-02-03T12:10:42.762Z,0.83
2023-02-03T12:16:12.100Z,0.79
2023-02-03T12:21:39.234Z,0.80
2023-02-03T12:27:00.880Z,0.79
2023-02-03T12:32:17.501Z,0.74
2023-02-03T12:37:29.751Z,0.67
2023-02-03T12:42:43.988Z,0.59
2023-02-03T12:47:57.168Z,0.56
2023-02-03T12:53:11.881Z,0.50
2023-02-03T12:58:26.861Z,0.43
2023-02-03T13:03:44.481Z,0.39
2023-02-03T13:08:59.965Z,0.36
2023-02-03T13:14:19.762Z,0.33
2023-02-03T13:19:32.242Z,0.32
2023-02-03T13:24:39.764Z,0.27
2023-02-03T13:30:13.792Z,0.24
2023-02-03T13:35:42.635Z,0.23
2023-02-03T13:41:02.843Z,0.24
2023-02-03T13:46:22.914Z,0.22
2023-02-03T13:51:35.312Z,0.17
2023-02-03T13:56:42.957Z,0.13
2023-02-03T14:01:50.811Z,0.15
2023-02-03T14:07:09.513Z,0.15
2023-02-03T14:12:44.076Z,0.12
2023-02-03T14:18:24.588Z,0.03
2023-02-03T14:23:45.905Z,0.03
2023-02-03T14:28:54.015Z,0.02
2023-02-03T14:34:17.626Z,-0.09
2023-02-03T14:40:27.865Z,-0.09
2023-02-03T14:46:02.648Z,-0.13
2023-02-03T14:51:25.582Z,-0.10
2023-02-03T14:57:04.393Z,-0.12
2023-02-03T15:02:21.393Z,-0.19
2023-02-03T15:07:45.057Z,-0.23
2023-02-03T15:12:54.383Z,-0.27
2023-02-03T15:18:20.957Z,-0.25
2023-02-03T15:23:30.970Z,-0.27
2023-02-03T15:28:37.945Z,-0.29
2023-02-03T15:33:45.121Z,-0.27
2023-02-03T15:39:01.301Z,-0.30
2023-02-03T15:44:15.741Z,-0.27
2023-02-03T15:49:29.053Z,-0.25
2023-02-03T15:54:43.922Z,-0.26
2023-02-03T15:59:56.046Z,-0.25
2023-02-03T16:05:07.866Z,-0.22
2023-02-03T16:10:30.578Z,-0.24
2023-02-03T16:15:37.949Z,-0.29
2023-02-03T16:20:52.079Z,-0.31
2023-02-03T16:26:21.096Z,-0.31
2023-02-03T16:31:44.851Z,-0.30
2023-02-03T16:37:09.740Z,-0.26
2023-02-03T16:42:37.672Z,-0.27
2023-02-03T16:48:03.255Z,-0.29
2023-02-03T16:53:20.189Z,-0.25
2023-02-03T16:58:28.598Z,-0.26
2023-02-03T17:03:38.148Z,-0.22
2023-02-03T17:08:45.584Z,-0.23
2023-02-03T17:13:54.409Z,-0.23
2023-02-03T17:19:01.229Z,-0.26
2023-02-03T17:24:09.285Z,-0.25
2023-02-03T17:29:18.707Z,-0.23
2023-02-03T17:34:25.711Z,-0.22
2023-02-03T17:55:50.327Z,-0.23
2023-02-03T18:00:59.865Z,-0.20
2023-02-03T18:06:08.663Z,-0.18
2023-02-03T18:11:18.769Z,-0.18
2023-02-03T18:16:34.254Z,-0.23
2023-02-03T18:21:43.481Z,-0.25
2023-02-03T18:26:57.170Z,-0.18
2023-02-03T18:32:08.169Z,-0.11
2023-02-03T18:37:17.527Z,-0.12
2023-02-03T18:42:28.532Z,-0.13
2023-02-03T18:47:39.979Z,-0.15
2023-02-03T18:52:56.520Z,-0.18
2023-02-03T18:58:05.625Z,-0.18
2023-02-03T19:03:16.209Z,-0.21
2023-02-03T19:08:24.780Z,-0.21
2023-02-03T19:13:35.170Z,-0.17
2023-02-03T19:18:49.465Z,-0.17
2023-02-03T19:23:59.872Z,-0.16
2023-02-03T19:29:10.494Z,-0.14
2023-02-03T19:34:24.272Z,-0.15
2023-02-03T19:39:37.071Z,-0.17
2023-02-03T19:44:48.373Z,-0.17
2023-02-03T19:49:59.880Z,-0.14
2023-02-03T19:55:13.099Z,-0.18
2023-02-03T20:00:26.407Z,-0.26
2023-02-03T20:05:37.800Z,-0.23
2023-02-03T20:10:46.964Z,-0.29
2023-02-03T20:15:57.732Z,-0.28
2023-02-03T20:21:08.976Z,-0.38
2023-02-03T20:26:19.676Z,-0.44
2023-02-03T20:31:29.554Z,-0.44
2023-02-03T20:36:40.910Z,-0.40
2023-02-03T20:41:55.331Z,-0.42
2023-02-03T20:47:09.808Z,-0.43
2023-02-03T20:52:23.737Z,-0.45
2023-02-03T20:57:35.811Z,-0.42
2023-02-03T21:02:57.549Z,-0.40
2023-02-03T21:08:16.118Z,-0.44
2023-02-03T21:13:28.910Z,-0.45
2023-02-03T21:18:41.742Z,-0.48
2023-02-03T21:23:55.037Z,-0.47
2023-02-03T21:29:05.648Z,-0.50
2023-02-03T21:34:30.070Z,-0.51
2023-02-03T21:39:41.500Z,-0.56
2023-02-03T21:44:50.098Z,-0.60
2023-02-03T21:50:02.363Z,-0.58
2023-02-03T21:55:19.717Z,-0.64
2023-02-03T22:00:48.762Z,-0.71
2023-02-03T22:06:06.410Z,-0.66
2023-02-03T22:11:16.460Z,-0.72
2023-02-03T22:16:24.270Z,-0.70
2023-02-03T22:21:31.140Z,-0.75
2023-02-03T22:26:40.099Z,-0.82
2023-02-03T22:31:46.942Z,-0.82
2023-02-03T22:36:53.542Z,-0.94
2023-02-03T22:42:01.930Z,-0.90
2023-02-03T22:47:08.450Z,-0.92
2023-02-03T22:52:15.763Z,-1.02
2023-02-03T22:57:24.001Z,-1.04
2023-02-03T23:02:30.657Z,-1.03
2023-02-03T23:07:38.789Z,-1.12
2023-02-03T23:12:46.807Z,-1.14
2023-02-03T23:17:53.349Z,-1.24
2023-02-03T23:23:00.195Z,-1.29
2023-02-03T23:28:08.359Z,-1.33
2023-02-03T23:33:15.136Z,-1.41
2023-02-03T23:38:21.612Z,-1.36
2023-02-03T23:43:29.440Z,-1.47
2023-02-03T23:48:35.776Z,-1.43
2023-02-03T23:53:41.980Z,-1.48
2023-02-03T23:58:49.498Z,-1.51
